Time;durP1;ratioP1;P1;durP2;ratioP2;P2;SDS_P1;SDS_P2;PMS_P1;PMS_P2;Temp;Humidity;BMP_temperature;BMP_pressure;BME280_temperature;BME280_humidity;BME280_pressure;Samples;Min_cycle;Max_cycle;Signal;HPM_P1;HPM_P2
2024/03/16 00:00:50;;;;;;;11.30;2.60;;;10.00;99.90;;;;;;5072140;28;20482;-63
2024/03/16 00:03:15;;;;;;;10.05;2.38;;;10.00;99.90;;;;;;5079296;28;20138;-62
2024/03/16 00:05:42;;;;;;;7.15;2.08;;;10.00;99.90;;;;;;5079013;28;20090;-62
2024/03/16 00:08:07;;;;;;;7.93;2.30;;;10.00;99.90;;;;;;5078314;28;20023;-62
2024/03/16 00:10:33;;;;;;;7.13;2.03;;;10.00;99.90;;;;;;5079862;28;20064;-62
2024/03/16 00:12:59;;;;;;;6.75;1.92;;;10.00;99.90;;;;;;5075404;28;20396;-63
2024/03/16 00:15:24;;;;;;;10.35;2.10;;;10.10;99.90;;;;;;5081167;28;20048;-62
2024/03/16 00:17:50;;;;;;;8.80;2.30;;;10.10;99.90;;;;;;5074823;28;20027;-62
2024/03/16 00:20:17;;;;;;;6.43;2.05;;;10.10;99.90;;;;;;5079812;28;20361;-62
2024/03/16 00:22:43;;;;;;;7.53;2.00;;;10.20;99.90;;;;;;5074413;28;20123;-62
2024/03/16 00:25:09;;;;;;;7.50;2.13;;;10.20;99.90;;;;;;5074264;28;20343;-62
2024/03/16 00:27:35;;;;;;;5.70;1.88;;;10.20;99.90;;;;;;5078090;28;20454;-62
2024/03/16 00:30:06;;;;;;;8.02;2.15;;;10.20;99.90;;;;;;5078503;28;20106;-63
2024/03/16 00:32:32;;;;;;;6.75;2.05;;;10.20;99.90;;;;;;5075892;28;20020;-62
2024/03/16 00:34:58;;;;;;;6.80;2.30;;;10.20;99.90;;;;;;5059029;28;20518;-63
2024/03/16 00:37:24;;;;;;;6.85;2.38;;;10.20;99.90;;;;;;5058016;28;20029;-62
2024/03/16 00:39:50;;;;;;;6.78;1.70;;;10.20;99.90;;;;;;5059968;28;20552;-63
2024/03/16 00:42:15;;;;;;;7.53;2.20;;;10.20;99.90;;;;;;5057114;28;20500;-62
2024/03/16 00:44:41;;;;;;;6.13;2.33;;;10.10;99.90;;;;;;5057659;28;20067;-63
2024/03/16 00:47:06;;;;;;;6.10;2.08;;;10.20;99.90;;;;;;5053951;28;20033;-63
2024/03/16 00:49:32;;;;;;;8.23;2.08;;;10.10;99.90;;;;;;5058500;28;20027;-63
2024/03/16 00:51:58;;;;;;;6.75;1.75;;;10.10;99.90;;;;;;5057434;28;20083;-63
2024/03/16 00:54:24;;;;;;;5.88;2.17;;;10.00;99.90;;;;;;5060891;28;20432;-63
2024/03/16 00:56:51;;;;;;;6.53;2.22;;;10.00;99.90;;;;;;5053808;28;20139;-61
2024/03/16 00:59:17;;;;;;;7.93;1.90;;;9.90;99.90;;;;;;5060531;28;20017;-61
2024/03/16 01:01:43;;;;;;;5.88;2.22;;;10.00;99.90;;;;;;5059664;28;20112;-63
2024/03/16 01:04:09;;;;;;;5.70;1.90;;;10.00;99.90;;;;;;5060626;28;20021;-63
2024/03/16 01:06:35;;;;;;;6.15;2.47;;;9.90;99.90;;;;;;5059885;28;20029;-63
2024/03/16 01:09:00;;;;;;;6.72;2.13;;;9.90;99.90;;;;;;5058568;28;20024;-61
2024/03/16 01:11:26;;;;;;;6.10;1.60;;;10.00;99.90;;;;;;5058984;28;20032;-61
2024/03/16 01:13:52;;;;;;;6.28;1.45;;;10.00;99.90;;;;;;5056271;28;20070;-61
2024/03/16 01:16:18;;;;;;;6.88;1.60;;;10.10;99.90;;;;;;5057852;28;20401;-63
2024/03/16 01:18:44;;;;;;;5.50;1.40;;;10.10;99.90;;;;;;5060204;28;20032;-61
2024/03/16 01:21:10;;;;;;;4.88;1.50;;;10.10;99.90;;;;;;5062389;28;20021;-61
2024/03/16 01:23:36;;;;;;;5.80;1.60;;;10.10;99.90;;;;;;5059134;28;20105;-62
2024/03/16 01:26:03;;;;;;;6.13;1.50;;;10.10;99.90;;;;;;5057466;28;20056;-63
2024/03/16 01:28:29;;;;;;;6.70;1.60;;;10.10;99.90;;;;;;5059771;28;20024;-63
2024/03/16 01:30:55;;;;;;;3.42;1.27;;;10.10;99.90;;;;;;5058678;28;20047;-61
2024/03/16 01:33:20;;;;;;;8.20;1.65;;;10.10;99.90;;;;;;5060825;28;20028;-61
2024/03/16 01:35:48;;;;;;;6.15;2.17;;;10.10;99.90;;;;;;5063501;28;20438;-61
2024/03/16 01:38:15;;;;;;;6.00;1.80;;;10.10;99.90;;;;;;5061547;28;20091;-61
2024/03/16 01:40:41;;;;;;;8.60;1.95;;;10.10;99.90;;;;;;5064361;28;20020;-63
2024/03/16 01:43:13;;;;;;;5.45;1.83;;;10.00;99.90;;;;;;5063787;28;20028;-61
2024/03/16 01:45:43;;;;;;;4.55;1.50;;;10.10;99.90;;;;;;5063862;28;20063;-61
2024/03/16 01:48:09;;;;;;;7.18;1.33;;;10.10;99.90;;;;;;5060244;28;20516;-61
2024/03/16 01:50:37;;;;;;;4.93;1.75;;;10.10;99.90;;;;;;5068952;28;20025;-61
2024/03/16 01:53:04;;;;;;;5.30;1.90;;;10.10;99.90;;;;;;5063076;28;20025;-61
2024/03/16 01:55:34;;;;;;;5.50;1.58;;;10.10;99.90;;;;;;5061794;28;20059;-60
2024/03/16 01:58:00;;;;;;;6.80;1.55;;;10.10;99.90;;;;;;5063503;28;20035;-63
2024/03/16 02:00:28;;;;;;;8.73;1.77;;;10.10;99.90;;;;;;5065325;28;20028;-61
2024/03/16 02:02:54;;;;;;;6.65;1.55;;;10.10;99.90;;;;;;5063347;28;20411;-61
2024/03/16 02:05:20;;;;;;;4.95;1.75;;;10.10;99.90;;;;;;5064585;28;20516;-63
2024/03/16 02:07:51;;;;;;;5.50;1.58;;;10.20;99.90;;;;;;5059711;28;20520;-63
2024/03/16 02:10:17;;;;;;;6.70;1.58;;;10.10;99.90;;;;;;5064786;28;20431;-63
2024/03/16 02:12:43;;;;;;;8.18;1.58;;;;;;;;;;5064097;28;20566;-63
2024/03/16 02:15:09;;;;;;;10.68;2.05;;;10.10;99.90;;;;;;5055696;28;20084;-61
2024/03/16 02:17:36;;;;;;;6.05;1.67;;;10.10;99.90;;;;;;5063551;28;20484;-62
2024/03/16 02:20:09;;;;;;;8.13;1.90;;;10.10;99.90;;;;;;5064268;28;20883;-61
2024/03/16 02:22:35;;;;;;;6.47;1.77;;;10.10;99.90;;;;;;5060425;28;20033;-63
2024/03/16 02:25:01;;;;;;;12.43;2.65;;;10.10;99.90;;;;;;5057175;28;20032;-62
2024/03/16 02:27:27;;;;;;;7.72;1.85;;;10.10;99.90;;;;;;5062557;28;20028;-62
2024/03/16 02:29:52;;;;;;;9.90;1.98;;;10.10;99.90;;;;;;5061400;28;20039;-61
2024/03/16 02:32:18;;;;;;;10.88;2.25;;;10.10;99.90;;;;;;5061374;28;20029;-62
2024/03/16 02:34:44;;;;;;;4.32;1.42;;;10.10;99.90;;;;;;5063793;28;20032;-63
2024/03/16 02:37:09;;;;;;;12.20;2.78;;;10.10;99.90;;;;;;5064207;28;20107;-62
2024/03/16 02:39:35;;;;;;;6.57;1.85;;;10.10;99.90;;;;;;5064142;28;20414;-62
2024/03/16 02:42:03;;;;;;;10.18;2.13;;;10.10;99.90;;;;;;5060792;28;20031;-62
2024/03/16 02:44:32;;;;;;;10.23;1.88;;;;;;;;;;5062510;28;20747;-64
2024/03/16 02:46:58;;;;;;;10.55;1.65;;;10.10;99.90;;;;;;5061299;28;20019;-63
2024/03/16 02:49:24;;;;;;;5.13;1.70;;;10.10;99.90;;;;;;5068168;28;20025;-64
2024/03/16 02:51:50;;;;;;;6.35;1.58;;;10.10;99.90;;;;;;5070672;28;20077;-64
2024/03/16 02:54:16;;;;;;;9.30;2.30;;;10.10;99.90;;;;;;5060598;28;20029;-62
2024/03/16 02:56:43;;;;;;;9.20;2.20;;;;;;;;;;5061840;28;20023;-64
2024/03/16 02:59:09;;;;;;;13.27;1.90;;;10.10;99.90;;;;;;5063679;28;20016;-62
2024/03/16 03:01:36;;;;;;;11.23;2.35;;;10.10;99.90;;;;;;5060613;28;20017;-64
2024/03/16 03:04:07;;;;;;;6.40;1.58;;;10.10;99.90;;;;;;5062693;28;20028;-62
2024/03/16 03:06:33;;;;;;;5.50;1.67;;;10.10;99.90;;;;;;5060296;28;20442;-61
2024/03/16 03:08:59;;;;;;;9.82;2.10;;;10.10;99.90;;;;;;5062061;28;20040;-63
2024/03/16 03:11:25;;;;;;;7.10;1.70;;;;;;;;;;5061436;28;20029;-64
2024/03/16 03:13:51;;;;;;;7.30;1.63;;;10.10;99.90;;;;;;5060900;28;20028;-62
2024/03/16 03:16:20;;;;;;;9.23;1.83;;;10.10;99.90;;;;;;5061832;28;20113;-61
2024/03/16 03:18:47;;;;;;;10.55;1.88;;;10.10;99.90;;;;;;5059751;28;20031;-62
2024/03/16 03:21:13;;;;;;;11.73;2.13;;;10.10;99.90;;;;;;5067181;28;20067;-62
2024/03/16 03:23:39;;;;;;;6.43;1.80;;;10.20;99.90;;;;;;5063103;28;20021;-64
2024/03/16 03:26:05;;;;;;;7.25;1.70;;;10.10;99.90;;;;;;5057783;28;20021;-61
2024/03/16 03:28:31;;;;;;;9.80;1.75;;;10.10;99.90;;;;;;5062450;28;20511;-62
2024/03/16 03:30:56;;;;;;;9.93;2.10;;;10.00;99.90;;;;;;5059898;28;20024;-61
2024/03/16 03:33:22;;;;;;;8.20;2.25;;;10.10;99.90;;;;;;5064518;28;20025;-62
2024/03/16 03:35:47;;;;;;;5.93;2.00;;;10.00;99.90;;;;;;5065700;28;20036;-61
2024/03/16 03:38:13;;;;;;;6.90;1.88;;;10.00;99.90;;;;;;5062823;28;20115;-62
2024/03/16 03:40:41;;;;;;;8.70;1.92;;;10.00;99.90;;;;;;5062332;28;20045;-62
2024/03/16 03:43:16;;;;;;;8.07;2.13;;;10.10;99.90;;;;;;5058602;28;20017;-62
2024/03/16 03:48:24;;;;;;;7.53;2.92;;;10.10;99.90;;;;;;5062733;28;20024;-61
2024/03/16 03:50:55;;;;;;;12.95;2.90;;;10.10;99.90;;;;;;5066361;28;20078;-62
2024/03/16 03:53:23;;;;;;;11.30;2.50;;;10.10;99.90;;;;;;5060639;28;20017;-61
2024/03/16 03:55:48;;;;;;;7.97;2.15;;;10.10;99.90;;;;;;5057277;28;20031;-62
2024/03/16 03:58:15;;;;;;;10.82;2.35;;;10.10;99.90;;;;;;5059540;28;20508;-61
2024/03/16 04:00:44;;;;;;;8.90;2.40;;;10.10;99.90;;;;;;5062176;28;20039;-62
2024/03/16 04:03:10;;;;;;;9.23;2.40;;;10.00;99.90;;;;;;5061904;28;20017;-61
2024/03/16 04:05:36;;;;;;;13.52;3.47;;;10.00;99.90;;;;;;5062016;28;20039;-62
2024/03/16 04:08:04;;;;;;;14.00;3.47;;;9.90;99.90;;;;;;5058305;28;20033;-62
2024/03/16 04:10:30;;;;;;;11.50;4.00;;;9.80;99.90;;;;;;5062079;28;20048;-62
2024/03/16 04:12:56;;;;;;;10.77;3.58;;;9.60;99.90;;;;;;5058820;28;20068;-61
2024/03/16 04:15:21;;;;;;;11.02;3.80;;;9.70;99.90;;;;;;5060602;28;20048;-62
2024/03/16 04:17:47;;;;;;;11.43;3.95;;;9.60;99.90;;;;;;5059505;28;20032;-61
2024/03/16 04:20:12;;;;;;;19.02;4.43;;;9.60;99.90;;;;;;5064052;28;20024;-61
2024/03/16 04:22:39;;;;;;;13.05;4.18;;;9.60;99.90;;;;;;5061300;28;20025;-62
2024/03/16 04:25:09;;;;;;;10.93;4.15;;;9.50;99.90;;;;;;5056766;28;20403;-64
2024/03/16 04:27:34;;;;;;;11.18;3.40;;;9.50;99.90;;;;;;5061729;28;20024;-62
2024/03/16 04:30:00;;;;;;;10.95;3.88;;;9.50;99.90;;;;;;5055574;28;20033;-62
2024/03/16 04:32:27;;;;;;;12.95;4.22;;;9.50;99.90;;;;;;5059142;28;20544;-62
2024/03/16 04:34:55;;;;;;;13.10;4.15;;;9.50;99.90;;;;;;5060249;28;20506;-62
2024/03/16 04:37:21;;;;;;;11.93;3.92;;;9.50;99.90;;;;;;5061603;28;20025;-64
2024/03/16 04:39:47;;;;;;;13.27;4.05;;;9.50;99.90;;;;;;5059191;28;20027;-62
2024/03/16 04:42:13;;;;;;;14.05;4.72;;;9.50;99.90;;;;;;5059082;28;20492;-61
2024/03/16 04:44:39;;;;;;;14.80;5.45;;;9.50;99.90;;;;;;5058960;28;20033;-62
2024/03/16 04:47:05;;;;;;;15.07;4.60;;;9.50;99.90;;;;;;5061116;28;20437;-64
2024/03/16 04:49:31;;;;;;;12.07;3.97;;;9.40;99.90;;;;;;5057648;28;20541;-62
2024/03/16 04:51:57;;;;;;;16.35;5.45;;;9.40;99.90;;;;;;5064737;28;20028;-62
2024/03/16 04:54:23;;;;;;;11.50;4.60;;;9.40;99.90;;;;;;5061044;28;20599;-63
2024/03/16 04:56:49;;;;;;;12.68;4.40;;;9.50;99.90;;;;;;5056752;28;20024;-63
2024/03/16 04:59:15;;;;;;;15.50;4.38;;;9.40;99.90;;;;;;5062036;28;20016;-63
2024/03/16 05:01:40;;;;;;;13.32;5.03;;;9.40;99.90;;;;;;5062094;28;20376;-62
2024/03/16 05:04:07;;;;;;;13.00;4.70;;;9.40;99.90;;;;;;5058341;28;20032;-62
2024/03/16 05:06:34;;;;;;;16.67;5.20;;;9.40;99.90;;;;;;5063130;28;20031;-62
2024/03/16 05:09:05;;;;;;;7.95;3.28;;;9.40;99.90;;;;;;5061780;28;20033;-62
2024/03/16 05:11:30;;;;;;;15.65;5.35;;;9.40;99.90;;;;;;5062354;28;20028;-62
2024/03/16 05:13:58;;;;;;;14.50;5.60;;;9.40;99.90;;;;;;5065295;28;20028;-62
2024/03/16 05:16:23;;;;;;;14.52;5.68;;;9.40;99.90;;;;;;5064068;28;20064;-63
2024/03/16 05:18:49;;;;;;;12.60;5.35;;;9.40;99.90;;;;;;5061876;28;20029;-62
2024/03/16 05:21:15;;;;;;;14.70;5.18;;;9.40;99.90;;;;;;5069008;28;20384;-63
2024/03/16 05:23:45;;;;;;;16.65;4.78;;;9.40;99.90;;;;;;5060418;28;20384;-62
2024/03/16 05:26:11;;;;;;;12.27;5.22;;;9.40;99.90;;;;;;5057869;28;20436;-63
2024/03/16 05:28:38;;;;;;;16.05;5.97;;;9.40;99.90;;;;;;5065014;28;20112;-62
2024/03/16 05:31:04;;;;;;;11.55;4.40;;;9.50;99.90;;;;;;5063991;28;20028;-62
2024/03/16 05:33:30;;;;;;;17.80;6.68;;;9.40;99.90;;;;;;5061866;28;20024;-62
2024/03/16 05:35:57;;;;;;;16.35;6.25;;;9.40;99.90;;;;;;5066412;28;20353;-62
2024/03/16 05:38:23;;;;;;;17.48;6.25;;;9.40;99.90;;;;;;5043759;28;20047;-63
2024/03/16 05:40:49;;;;;;;20.67;7.30;;;9.40;99.90;;;;;;5061836;28;20028;-63
2024/03/16 05:43:15;;;;;;;21.40;7.68;;;9.40;99.90;;;;;;5064066;28;20017;-63
2024/03/16 05:45:41;;;;;;;20.38;7.93;;;9.40;99.90;;;;;;5063311;28;20059;-62
2024/03/16 05:48:07;;;;;;;21.80;8.18;;;9.50;99.90;;;;;;5062585;28;20027;-63
2024/03/16 05:50:35;;;;;;;21.42;8.50;;;9.40;99.90;;;;;;5070485;28;20024;-63
2024/03/16 05:53:00;;;;;;;24.98;8.85;;;9.40;99.90;;;;;;5061156;28;20380;-63
2024/03/16 05:55:26;;;;;;;15.18;6.68;;;9.50;99.90;;;;;;5059524;28;20086;-64
2024/03/16 05:57:51;;;;;;;30.08;10.00;;;9.40;99.90;;;;;;5061769;28;20029;-63
2024/03/16 06:00:19;;;;;;;24.20;8.00;;;9.50;99.90;;;;;;5064413;28;20020;-62
2024/03/16 06:02:45;;;;;;;23.95;8.70;;;9.50;99.90;;;;;;5062273;28;20017;-63
2024/03/16 06:05:11;;;;;;;26.48;9.68;;;9.50;99.90;;;;;;5062567;28;20071;-64
2024/03/16 06:07:37;;;;;;;21.00;7.05;;;9.40;99.90;;;;;;5059514;28;20481;-62
2024/03/16 06:10:02;;;;;;;27.25;9.93;;;9.60;99.90;;;;;;5066255;28;20029;-62
2024/03/16 06:12:30;;;;;;;30.75;12.02;;;9.40;99.90;;;;;;5063532;28;20492;-63
2024/03/16 06:14:57;;;;;;;25.13;9.20;;;9.40;99.90;;;;;;5063580;28;20040;-64
2024/03/16 06:17:23;;;;;;;21.27;7.78;;;9.40;99.90;;;;;;5059637;28;20070;-64
2024/03/16 06:19:50;;;;;;;25.65;9.20;;;9.40;99.90;;;;;;5061079;28;20112;-62
2024/03/16 06:22:16;;;;;;;20.52;7.85;;;9.50;99.90;;;;;;5064438;28;20326;-63
2024/03/16 06:24:42;;;;;;;24.80;8.77;;;9.50;99.90;;;;;;5063909;28;20503;-63
2024/03/16 06:27:10;;;;;;;26.35;9.43;;;9.40;99.90;;;;;;5060340;28;20073;-63
2024/03/16 06:29:36;;;;;;;16.77;7.53;;;9.40;99.90;;;;;;5060534;28;20494;-62
2024/03/16 06:32:08;;;;;;;22.55;7.93;;;9.40;99.90;;;;;;5060848;28;20029;-62
2024/03/16 06:34:34;;;;;;;15.68;6.95;;;9.30;99.90;;;;;;5062015;28;20022;-62
2024/03/16 06:37:01;;;;;;;21.15;6.22;;;9.20;99.90;;;;;;5066747;28;20078;-63
2024/03/16 06:39:27;;;;;;;18.17;5.63;;;9.00;99.90;;;;;;5060780;28;20071;-63
2024/03/16 06:41:53;;;;;;;19.05;7.40;;;9.00;99.90;;;;;;5062360;28;20020;-63
2024/03/16 06:44:19;;;;;;;18.55;7.55;;;9.00;99.90;;;;;;5060113;28;20082;-62
2024/03/16 06:46:44;;;;;;;18.05;6.85;;;8.90;99.90;;;;;;5063370;28;20020;-63
2024/03/16 06:49:10;;;;;;;12.70;4.57;;;8.90;99.90;;;;;;5061530;28;20028;-63
2024/03/16 06:51:36;;;;;;;16.60;4.93;;;8.90;99.90;;;;;;5065876;28;20032;-63
2024/03/16 06:54:03;;;;;;;12.90;5.43;;;8.80;99.90;;;;;;5060061;28;20029;-63
2024/03/16 06:56:29;;;;;;;10.18;4.38;;;8.70;99.90;;;;;;5059630;28;20028;-63
2024/03/16 06:58:55;;;;;;;11.18;5.22;;;8.70;99.90;;;;;;5064304;28;20025;-62
2024/03/16 07:01:24;;;;;;;8.30;3.25;;;8.70;99.90;;;;;;5065439;28;20081;-62
2024/03/16 07:03:49;;;;;;;14.70;4.18;;;8.50;99.90;;;;;;5055984;28;20028;-62
2024/03/16 07:06:15;;;;;;;6.53;2.40;;;8.60;99.90;;;;;;5058072;28;20033;-62
2024/03/16 07:08:41;;;;;;;11.13;4.07;;;8.50;99.90;;;;;;5062567;28;20037;-62
2024/03/16 07:11:06;;;;;;;14.98;4.65;;;8.50;99.90;;;;;;5057180;28;20021;-62
2024/03/16 07:13:32;;;;;;;13.27;4.82;;;8.50;99.90;;;;;;5061575;28;20096;-62
2024/03/16 07:15:58;;;;;;;13.10;3.95;;;8.50;99.90;;;;;;5059850;28;20567;-62
2024/03/16 07:18:23;;;;;;;9.23;3.28;;;8.50;99.90;;;;;;5059180;28;20029;-62
2024/03/16 07:20:49;;;;;;;10.90;4.55;;;8.60;99.90;;;;;;5072102;28;20056;-62
2024/03/16 07:23:15;;;;;;;10.13;3.88;;;8.50;99.90;;;;;;5057425;28;20021;-62
2024/03/16 07:25:43;;;;;;;10.48;4.32;;;8.50;99.90;;;;;;5060744;28;20028;-62
2024/03/16 07:28:09;;;;;;;9.73;4.22;;;8.50;99.90;;;;;;5059440;28;20139;-62
2024/03/16 07:30:35;;;;;;;8.88;3.33;;;8.40;99.90;;;;;;5059705;28;20528;-62
2024/03/16 07:33:03;;;;;;;8.00;2.83;;;8.30;99.90;;;;;;5060372;28;20025;-62
2024/03/16 07:35:28;;;;;;;14.20;3.00;;;8.20;99.90;;;;;;5060185;28;20029;-62
2024/03/16 07:37:55;;;;;;;6.80;2.30;;;8.20;99.90;;;;;;5052325;28;20497;-62
2024/03/16 07:40:21;;;;;;;10.70;2.42;;;;;;;;;;5058247;28;20067;-61
2024/03/16 07:42:48;;;;;;;7.40;2.78;;;8.30;99.90;;;;;;5063504;28;20029;-62
2024/03/16 07:45:15;;;;;;;7.70;3.05;;;8.30;99.90;;;;;;5055871;28;20024;-62
2024/03/16 07:47:40;;;;;;;8.40;2.42;;;8.30;99.90;;;;;;5061360;28;20367;-62
2024/03/16 07:50:07;;;;;;;8.48;3.17;;;8.20;99.90;;;;;;5066005;28;20036;-62
2024/03/16 07:52:33;;;;;;;7.82;2.60;;;8.20;99.90;;;;;;5059808;28;20024;-62
2024/03/16 07:55:00;;;;;;;7.30;2.60;;;8.20;99.90;;;;;;5056598;28;20028;-62
2024/03/16 07:57:27;;;;;;;7.75;2.35;;;8.30;99.90;;;;;;5064673;28;20031;-61
2024/03/16 07:59:53;;;;;;;8.27;2.70;;;8.20;99.90;;;;;;5063368;28;20032;-62
2024/03/16 08:02:19;;;;;;;8.75;2.33;;;8.10;99.90;;;;;;5061146;28;20138;-62
2024/03/16 08:04:45;;;;;;;6.95;2.00;;;8.20;99.90;;;;;;5061106;28;20618;-62
2024/03/16 08:07:11;;;;;;;10.27;2.28;;;8.00;99.90;;;;;;5063842;28;20100;-62
2024/03/16 08:09:37;;;;;;;7.60;2.08;;;8.10;99.90;;;;;;5063330;28;20101;-62
2024/03/16 08:12:03;;;;;;;7.28;2.15;;;8.30;99.90;;;;;;5056896;28;20108;-62
2024/03/16 08:14:34;;;;;;;4.57;1.45;;;8.10;99.90;;;;;;5058330;28;20013;-62
2024/03/16 08:17:03;;;;;;;5.35;1.65;;;8.30;99.90;;;;;;5053415;28;20021;-62
2024/03/16 08:19:30;;;;;;;6.88;2.47;;;8.30;99.90;;;;;;5064016;28;20407;-64
2024/03/16 08:21:56;;;;;;;6.57;2.05;;;8.30;99.90;;;;;;5062137;28;20068;-63
2024/03/16 08:24:21;;;;;;;6.32;2.30;;;8.40;99.90;;;;;;5066212;28;20020;-64
2024/03/16 08:26:47;;;;;;;4.70;1.70;;;8.40;99.90;;;;;;5060242;28;20074;-63
2024/03/16 08:29:12;;;;;;;4.80;1.52;;;8.50;99.90;;;;;;5063700;28;20063;-62
2024/03/16 08:31:38;;;;;;;4.00;1.30;;;8.70;99.90;;;;;;5065350;28;20400;-63
2024/03/16 08:34:04;;;;;;;3.25;1.13;;;;;;;;;;5065690;28;20016;-63
2024/03/16 08:36:30;;;;;;;6.93;1.40;;;8.90;99.90;;;;;;5076322;28;20032;-62
2024/03/16 08:38:56;;;;;;;3.72;1.17;;;9.00;99.90;;;;;;5067711;28;20037;-64
2024/03/16 08:41:22;;;;;;;3.05;1.17;;;8.90;99.90;;;;;;5078030;28;20021;-62
2024/03/16 08:43:49;;;;;;;3.38;0.90;;;8.90;99.90;;;;;;5074159;28;20020;-62
2024/03/16 08:46:14;;;;;;;5.13;1.05;;;8.70;99.90;;;;;;5056552;28;20090;-62
2024/03/16 08:48:40;;;;;;;4.47;1.13;;;8.60;99.90;;;;;;5060823;28;20460;-62
2024/03/16 08:51:06;;;;;;;6.88;1.60;;;8.60;99.90;;;;;;5065282;28;20029;-63
2024/03/16 08:53:31;;;;;;;5.63;1.58;;;8.60;99.90;;;;;;5066268;28;20413;-63
2024/03/16 08:55:58;;;;;;;5.95;1.95;;;8.50;99.90;;;;;;5062938;28;20108;-62
2024/03/16 08:58:29;;;;;;;7.88;2.42;;;8.30;99.90;;;;;;5059204;28;20028;-63
2024/03/16 09:00:55;;;;;;;8.82;2.72;;;8.40;99.90;;;;;;5061812;28;20508;-63
2024/03/16 09:03:21;;;;;;;5.30;2.00;;;8.40;99.90;;;;;;5059678;28;20032;-62
2024/03/16 09:05:46;;;;;;;7.95;2.80;;;8.30;99.90;;;;;;5058275;28;20127;-63
2024/03/16 09:08:12;;;;;;;8.57;2.33;;;8.40;99.90;;;;;;5060792;28;20027;-62
2024/03/16 09:10:38;;;;;;;6.22;1.88;;;8.20;99.90;;;;;;5057600;28;20381;-63
2024/03/16 09:13:03;;;;;;;5.38;1.50;;;8.00;99.90;;;;;;5060273;28;20020;-63
2024/03/16 09:15:29;;;;;;;5.07;1.48;;;7.70;99.90;;;;;;5060775;28;20049;-63
2024/03/16 09:17:54;;;;;;;4.00;1.50;;;7.50;99.90;;;;;;5054172;28;20029;-63
2024/03/16 09:20:20;;;;;;;4.25;1.10;;;7.40;99.90;;;;;;5060163;28;20566;-63
2024/03/16 09:22:47;;;;;;;3.22;1.20;;;7.40;99.90;;;;;;5053102;28;20021;-62
2024/03/16 09:25:13;;;;;;;4.93;1.38;;;7.40;99.90;;;;;;5060085;28;20518;-65
2024/03/16 09:27:39;;;;;;;6.45;1.50;;;7.40;99.90;;;;;;5064486;28;20020;-63
2024/03/16 09:30:06;;;;;;;6.18;1.10;;;7.40;99.90;;;;;;5057236;28;20029;-62
2024/03/16 09:32:31;;;;;;;4.47;1.30;;;7.60;99.90;;;;;;5064322;28;20020;-62
2024/03/16 09:34:57;;;;;;;6.80;1.70;;;7.80;99.90;;;;;;5058651;28;20032;-61
2024/03/16 09:37:23;;;;;;;5.13;1.40;;;8.00;99.90;;;;;;5059866;28;20039;-63
2024/03/16 09:39:49;;;;;;;8.15;1.30;;;8.10;99.90;;;;;;5059010;28;20082;-62
2024/03/16 09:42:14;;;;;;;3.65;1.35;;;8.30;99.90;;;;;;5059623;28;20472;-60
2024/03/16 09:44:41;;;;;;;3.72;1.20;;;8.50;99.90;;;;;;5057659;28;20021;-61
2024/03/16 09:47:14;;;;;;;4.30;1.30;;;8.70;99.90;;;;;;5060715;28;20022;-60
2024/03/16 09:49:41;;;;;;;7.05;1.40;;;8.80;99.90;;;;;;5057697;28;20409;-63
2024/03/16 09:52:10;;;;;;;4.57;1.20;;;8.80;99.90;;;;;;5060295;28;20056;-62
2024/03/16 09:54:37;;;;;;;5.85;1.20;;;8.70;99.90;;;;;;5069236;28;20082;-62
2024/03/16 09:57:04;;;;;;;4.35;1.15;;;8.70;99.90;;;;;;5060224;28;20102;-63
2024/03/16 09:59:31;;;;;;;4.03;1.08;;;8.80;99.90;;;;;;5068773;28;20078;-61
2024/03/16 10:01:59;;;;;;;6.13;1.30;;;8.80;99.90;;;;;;5065685;28;20024;-62
2024/03/16 10:04:24;;;;;;;2.20;0.90;;;8.90;99.90;;;;;;5063103;28;20037;-61
2024/03/16 10:06:50;;;;;;;2.40;0.80;;;8.80;99.90;;;;;;5066977;28;20025;-61
2024/03/16 10:09:17;;;;;;;6.53;0.95;;;8.80;99.90;;;;;;5060340;28;20142;-61
2024/03/16 10:11:43;;;;;;;1.90;1.00;;;8.70;99.90;;;;;;5060304;28;20104;-61
2024/03/16 10:14:10;;;;;;;6.57;1.30;;;8.60;99.90;;;;;;5059740;28;20163;-61
2024/03/16 10:16:40;;;;;;;2.78;1.05;;;8.60;99.90;;;;;;5057921;28;20082;-61
2024/03/16 10:19:09;;;;;;;4.55;1.30;;;8.60;99.90;;;;;;5058034;28;20032;-62
2024/03/16 10:21:35;;;;;;;4.63;1.10;;;8.80;99.90;;;;;;5058388;28;20033;-61
2024/03/16 10:24:01;;;;;;;3.78;1.23;;;8.80;99.90;;;;;;5054847;28;20385;-62
2024/03/16 10:26:32;;;;;;;2.58;1.05;;;9.00;99.90;;;;;;5059314;28;20070;-61
2024/03/16 10:29:02;;;;;;;5.20;1.30;;;9.10;99.90;;;;;;5060542;28;20051;-62
2024/03/16 10:31:32;;;;;;;4.38;1.08;;;9.20;99.90;;;;;;5058072;28;20051;-62
2024/03/16 10:33:59;;;;;;;4.20;1.42;;;9.40;99.90;;;;;;5063595;28;20032;-62
2024/03/16 10:36:26;;;;;;;3.38;1.10;;;9.40;99.90;;;;;;5063174;28;20403;-62
2024/03/16 10:38:54;;;;;;;4.35;1.17;;;9.20;99.90;;;;;;5063050;28;20037;-61
2024/03/16 10:41:20;;;;;;;4.72;1.17;;;9.10;99.90;;;;;;5063221;28;20055;-62
2024/03/16 10:43:46;;;;;;;7.97;1.77;;;9.10;99.90;;;;;;5061283;28;20020;-63
2024/03/16 10:46:15;;;;;;;1.40;0.88;;;9.00;99.90;;;;;;5059532;28;20025;-62
2024/03/16 10:48:42;;;;;;;4.22;1.13;;;9.00;99.90;;;;;;5066534;28;20020;-62
2024/03/16 10:51:09;;;;;;;9.55;1.65;;;9.00;99.90;;;;;;5061274;28;20028;-62
2024/03/16 10:53:36;;;;;;;9.93;1.50;;;9.20;99.90;;;;;;5064980;28;20067;-63
2024/03/16 10:56:03;;;;;;;5.18;1.38;;;9.00;99.90;;;;;;5062653;28;20055;-62
2024/03/16 10:58:29;;;;;;;5.45;1.30;;;9.00;99.90;;;;;;5062567;28;20025;-62
2024/03/16 11:01:07;;;;;;;5.20;1.35;;;9.00;99.90;;;;;;5061662;28;20431;-61
2024/03/16 11:03:36;;;;;;;4.35;1.10;;;9.00;99.90;;;;;;5063482;28;20017;-63
2024/03/16 11:06:09;;;;;;;2.63;0.95;;;9.00;99.90;;;;;;5064114;28;20032;-62
2024/03/16 11:08:42;;;;;;;7.63;1.10;;;8.90;99.90;;;;;;5060215;28;20051;-62
2024/03/16 11:11:10;;;;;;;2.28;0.90;;;8.90;99.90;;;;;;5064147;28;20023;-62
2024/03/16 11:13:36;;;;;;;3.10;0.95;;;8.90;99.90;;;;;;5061185;28;20017;-62
2024/03/16 11:16:27;;;;;;;2.92;1.00;;;9.00;99.90;;;;;;5066370;28;20560;-63
2024/03/16 11:18:58;;;;;;;3.83;1.00;;;9.20;99.90;;;;;;5066121;28;20020;-63
2024/03/16 11:21:28;;;;;;;3.70;0.93;;;9.50;99.90;;;;;;5067585;28;20017;-62
2024/03/16 11:23:54;;;;;;;4.70;1.00;;;9.90;99.90;;;;;;5064820;28;20441;-62
2024/03/16 11:26:32;;;;;;;2.33;0.70;;;9.90;99.90;;;;;;5060029;28;20021;-62
2024/03/16 11:29:00;;;;;;;4.10;0.80;;;9.70;99.90;;;;;;5062363;28;20031;-63
2024/03/16 11:31:28;;;;;;;4.20;0.95;;;9.50;99.90;;;;;;5058384;28;20017;-62
2024/03/16 11:33:54;;;;;;;4.07;1.10;;;9.60;99.90;;;;;;5061615;28;20039;-62
2024/03/16 11:36:20;;;;;;;3.20;1.13;;;9.50;99.90;;;;;;5058987;28;20032;-62
2024/03/16 11:38:52;;;;;;;5.40;1.50;;;9.40;99.90;;;;;;5063931;28;20488;-62
2024/03/16 11:41:18;;;;;;;3.28;1.00;;;9.40;99.90;;;;;;5060882;28;20075;-62
2024/03/16 11:43:45;;;;;;;4.65;1.10;;;9.30;99.90;;;;;;5057500;28;20024;-61
2024/03/16 11:46:13;;;;;;;3.17;1.20;;;9.30;99.90;;;;;;5058996;28;20017;-63
2024/03/16 11:48:42;;;;;;;2.28;1.15;;;9.30;99.90;;;;;;5053919;28;20031;-61
2024/03/16 11:51:13;;;;;;;3.78;1.30;;;9.20;99.90;;;;;;5065569;28;20043;-62
2024/03/16 11:53:39;;;;;;;5.38;1.25;;;9.10;99.90;;;;;;5059922;28;20043;-61
2024/03/16 11:56:11;;;;;;;3.45;1.40;;;8.90;99.90;;;;;;5054916;28;20021;-62
2024/03/16 11:58:41;;;;;;;4.05;1.33;;;8.90;99.90;;;;;;5062978;28;20029;-62
2024/03/16 12:01:18;;;;;;;8.50;1.50;;;8.90;99.90;;;;;;5059244;28;20150;-61
2024/03/16 12:03:48;;;;;;;3.20;1.10;;;8.90;99.90;;;;;;5057716;28;20476;-61
2024/03/16 12:06:14;;;;;;;4.60;1.13;;;8.90;99.90;;;;;;5062456;28;20029;-61
2024/03/16 12:08:40;;;;;;;4.85;1.50;;;8.80;99.90;;;;;;5064450;28;20048;-61
2024/03/16 12:11:08;;;;;;;4.07;1.30;;;8.60;99.90;;;;;;5058351;28;20024;-61
2024/03/16 12:13:34;;;;;;;5.43;1.42;;;8.60;99.90;;;;;;5061849;28;20017;-61
2024/03/16 12:15:59;;;;;;;9.20;1.50;;;8.60;99.90;;;;;;5057000;28;20429;-61
2024/03/16 12:18:26;;;;;;;7.35;1.45;;;8.70;99.90;;;;;;5057968;28;20036;-61
2024/03/16 12:20:54;;;;;;;7.18;1.50;;;8.70;99.90;;;;;;5063182;28;20024;-62
2024/03/16 12:23:20;;;;;;;5.80;1.50;;;8.80;99.90;;;;;;5053986;28;20028;-61
2024/03/16 12:25:49;;;;;;;3.47;1.20;;;8.90;99.90;;;;;;5062831;28;20024;-60
2024/03/16 12:28:16;;;;;;;8.55;2.38;;;9.00;99.90;;;;;;5060403;28;20833;-60
2024/03/16 12:30:42;;;;;;;8.63;1.60;;;9.20;99.90;;;;;;5064162;28;20120;-61
2024/03/16 12:33:11;;;;;;;6.80;1.17;;;9.30;99.90;;;;;;5055422;28;20151;-61
2024/03/16 12:35:37;;;;;;;9.13;2.45;;;9.60;99.90;;;;;;5064917;28;20104;-60
2024/03/16 12:38:03;;;;;;;5.60;1.90;;;9.90;99.90;;;;;;5051394;28;20043;-61
2024/03/16 12:40:29;;;;;;;7.75;2.25;;;10.20;99.90;;;;;;5055627;28;20013;-61
2024/03/16 12:42:55;;;;;;;5.45;1.67;;;10.60;99.90;;;;;;5066895;28;20114;-61
2024/03/16 12:45:20;;;;;;;6.03;1.80;;;10.90;99.90;;;;;;5056445;28;20036;-61
2024/03/16 12:47:46;;;;;;;3.63;1.15;;;10.90;99.90;;;;;;5054448;28;20017;-62
2024/03/16 12:50:12;;;;;;;9.32;1.80;;;10.60;99.90;;;;;;5062651;28;20107;-62
2024/03/16 12:52:38;;;;;;;8.43;1.80;;;10.30;99.90;;;;;;5056790;28;20055;-62